sensor_id;sensor_type;location;lat;lon;timestamp;P1;durP1;ratioP1;P2;durP2;ratioP2
85210;SDS011;75591;44.496;0.166;2024-02-26T00:07:37;30.43;;;2.53;;
85210;SDS011;75591;44.496;0.166;2024-02-26T00:22:56;31.27;;;1.77;;
85210;SDS011;75591;44.496;0.166;2024-02-26T00:38:14;22.93;;;2.40;;
85210;SDS011;75591;44.496;0.166;2024-02-26T00:53:35;28.97;;;3.17;;
85210;SDS011;75591;44.496;0.166;2024-02-26T01:08:54;29.27;;;2.40;;
85210;SDS011;75591;44.496;0.166;2024-02-26T01:24:14;34.83;;;3.20;;
85210;SDS011;75591;44.496;0.166;2024-02-26T01:39:34;14.70;;;1.90;;
85210;SDS011;75591;44.496;0.166;2024-02-26T01:54:53;12.30;;;1.23;;
85210;SDS011;75591;44.496;0.166;2024-02-26T02:10:13;20.67;;;2.10;;
85210;SDS011;75591;44.496;0.166;2024-02-26T02:25:35;4.57;;;1.33;;
85210;SDS011;75591;44.496;0.166;2024-02-26T02:40:53;23.37;;;1.57;;
85210;SDS011;75591;44.496;0.166;2024-02-26T02:56:11;18.23;;;2.17;;
85210;SDS011;75591;44.496;0.166;2024-02-26T03:11:30;9.97;;;1.47;;
85210;SDS011;75591;44.496;0.166;2024-02-26T03:26:52;6.07;;;1.30;;
85210;SDS011;75591;44.496;0.166;2024-02-26T03:42:09;17.10;;;1.60;;
85210;SDS011;75591;44.496;0.166;2024-02-26T03:57:28;11.20;;;2.43;;
85210;SDS011;75591;44.496;0.166;2024-02-26T04:12:49;17.80;;;1.87;;
85210;SDS011;75591;44.496;0.166;2024-02-26T04:28:08;21.97;;;1.90;;
85210;SDS011;75591;44.496;0.166;2024-02-26T04:43:27;9.17;;;1.93;;
85210;SDS011;75591;44.496;0.166;2024-02-26T04:58:48;19.00;;;1.83;;
85210;SDS011;75591;44.496;0.166;2024-02-26T05:14:07;7.40;;;2.47;;
85210;SDS011;75591;44.496;0.166;2024-02-26T05:29:26;25.40;;;1.77;;
85210;SDS011;75591;44.496;0.166;2024-02-26T05:44:45;11.80;;;1.83;;
85210;SDS011;75591;44.496;0.166;2024-02-26T06:00:06;14.63;;;2.10;;
85210;SDS011;75591;44.496;0.166;2024-02-26T06:15:27;12.90;;;1.50;;
85210;SDS011;75591;44.496;0.166;2024-02-26T06:30:46;4.40;;;1.13;;
85210;SDS011;75591;44.496;0.166;2024-02-26T06:46:05;7.83;;;1.00;;
85210;SDS011;75591;44.496;0.166;2024-02-26T07:01:24;13.87;;;1.90;;
85210;SDS011;75591;44.496;0.166;2024-02-26T07:16:45;3.87;;;0.90;;
85210;SDS011;75591;44.496;0.166;2024-02-26T07:32:04;22.37;;;2.33;;
85210;SDS011;75591;44.496;0.166;2024-02-26T07:47:23;16.17;;;2.17;;
85210;SDS011;75591;44.496;0.166;2024-02-26T08:02:42;37.60;;;2.57;;
85210;SDS011;75591;44.496;0.166;2024-02-26T08:18:04;26.17;;;2.40;;
85210;SDS011;75591;44.496;0.166;2024-02-26T08:33:21;10.23;;;1.60;;
85210;SDS011;75591;44.496;0.166;2024-02-26T08:48:40;22.07;;;2.20;;
85210;SDS011;75591;44.496;0.166;2024-02-26T09:04:00;17.27;;;2.80;;
85210;SDS011;75591;44.496;0.166;2024-02-26T09:19:18;19.03;;;2.70;;
85210;SDS011;75591;44.496;0.166;2024-02-26T09:34:39;5.00;;;0.97;;
85210;SDS011;75591;44.496;0.166;2024-02-26T09:49:55;15.17;;;1.67;;
85210;SDS011;75591;44.496;0.166;2024-02-26T10:05:13;12.10;;;1.20;;
85210;SDS011;75591;44.496;0.166;2024-02-26T10:20:32;6.17;;;0.80;;
85210;SDS011;75591;44.496;0.166;2024-02-26T10:35:51;2.87;;;1.07;;
85210;SDS011;75591;44.496;0.166;2024-02-26T10:51:10;11.27;;;0.63;;
85210;SDS011;75591;44.496;0.166;2024-02-26T11:06:30;12.43;;;1.00;;
85210;SDS011;75591;44.496;0.166;2024-02-26T11:21:48;0.80;;;0.40;;
85210;SDS011;75591;44.496;0.166;2024-02-26T11:37:10;8.63;;;1.03;;
85210;SDS011;75591;44.496;0.166;2024-02-26T11:52:27;6.30;;;0.73;;
85210;SDS011;75591;44.496;0.166;2024-02-26T12:07:48;3.67;;;0.90;;
85210;SDS011;75591;44.496;0.166;2024-02-26T12:23:14;2.53;;;0.60;;
85210;SDS011;75591;44.496;0.166;2024-02-26T12:38:31;0.83;;;0.40;;
85210;SDS011;75591;44.496;0.166;2024-02-26T12:53:50;0.67;;;0.30;;
85210;SDS011;75591;44.496;0.166;2024-02-26T13:09:12;2.23;;;0.70;;
85210;SDS011;75591;44.496;0.166;2024-02-26T13:24:28;0.93;;;0.40;;
85210;SDS011;75591;44.496;0.166;2024-02-26T13:39:47;0.50;;;0.40;;
85210;SDS011;75591;44.496;0.166;2024-02-26T13:55:09;2.40;;;0.70;;
85210;SDS011;75591;44.496;0.166;2024-02-26T14:10:28;1.60;;;0.40;;
85210;SDS011;75591;44.496;0.166;2024-02-26T14:25:43;3.83;;;0.50;;
85210;SDS011;75591;44.496;0.166;2024-02-26T14:40:59;2.63;;;0.70;;
85210;SDS011;75591;44.496;0.166;2024-02-26T14:56:19;2.53;;;0.63;;
85210;SDS011;75591;44.496;0.166;2024-02-26T15:11:39;0.33;;;0.20;;
85210;SDS011;75591;44.496;0.166;2024-02-26T15:26:57;0.80;;;0.50;;
85210;SDS011;75591;44.496;0.166;2024-02-26T15:42:17;0.63;;;0.43;;
85210;SDS011;75591;44.496;0.166;2024-02-26T15:57:37;1.27;;;0.20;;
85210;SDS011;75591;44.496;0.166;2024-02-26T16:12:57;1.57;;;0.60;;
85210;SDS011;75591;44.496;0.166;2024-02-26T16:28:15;0.70;;;0.50;;
85210;SDS011;75591;44.496;0.166;2024-02-26T16:43:37;0.87;;;0.77;;
85210;SDS011;75591;44.496;0.166;2024-02-26T16:58:54;3.97;;;1.47;;
85210;SDS011;75591;44.496;0.166;2024-02-26T17:14:15;3.00;;;0.80;;
85210;SDS011;75591;44.496;0.166;2024-02-26T17:29:34;1.07;;;0.70;;
85210;SDS011;75591;44.496;0.166;2024-02-26T17:44:52;0.70;;;0.43;;
85210;SDS011;75591;44.496;0.166;2024-02-26T18:00:09;6.83;;;1.30;;
85210;SDS011;75591;44.496;0.166;2024-02-26T18:15:29;2.60;;;1.07;;
85210;SDS011;75591;44.496;0.166;2024-02-26T18:30:48;1.50;;;1.10;;
85210;SDS011;75591;44.496;0.166;2024-02-26T18:46:08;0.77;;;0.70;;
85210;SDS011;75591;44.496;0.166;2024-02-26T19:01:27;0.87;;;0.50;;
85210;SDS011;75591;44.496;0.166;2024-02-26T19:16:46;0.90;;;0.60;;
85210;SDS011;75591;44.496;0.166;2024-02-26T19:32:05;0.60;;;0.60;;
85210;SDS011;75591;44.496;0.166;2024-02-26T19:47:23;1.33;;;0.83;;
85210;SDS011;75591;44.496;0.166;2024-02-26T20:02:43;0.30;;;0.30;;
85210;SDS011;75591;44.496;0.166;2024-02-26T20:18:03;0.50;;;0.30;;
85210;SDS011;75591;44.496;0.166;2024-02-26T20:33:24;0.60;;;0.60;;
85210;SDS011;75591;44.496;0.166;2024-02-26T20:48:43;0.73;;;0.60;;
85210;SDS011;75591;44.496;0.166;2024-02-26T21:04:01;0.73;;;0.73;;
85210;SDS011;75591;44.496;0.166;2024-02-26T21:19:19;0.57;;;0.47;;
85210;SDS011;75591;44.496;0.166;2024-02-26T21:34:40;0.43;;;0.43;;
85210;SDS011;75591;44.496;0.166;2024-02-26T21:49:58;0.70;;;0.47;;
85210;SDS011;75591;44.496;0.166;2024-02-26T22:05:18;2.00;;;1.23;;
85210;SDS011;75591;44.496;0.166;2024-02-26T22:20:37;0.90;;;0.90;;
85210;SDS011;75591;44.496;0.166;2024-02-26T22:35:56;1.67;;;1.03;;
85210;SDS011;75591;44.496;0.166;2024-02-26T22:51:17;0.70;;;0.70;;
85210;SDS011;75591;44.496;0.166;2024-02-26T23:06:37;0.90;;;0.90;;
85210;SDS011;75591;44.496;0.166;2024-02-26T23:21:56;0.53;;;0.53;;
85210;SDS011;75591;44.496;0.166;2024-02-26T23:37:15;1.40;;;0.73;;
85210;SDS011;75591;44.496;0.166;2024-02-26T23:52:34;0.70;;;0.70;;
